createdAt,value
2017-12-13T00:01:00.179Z,70.65
2017-12-13T00:03:27.668Z,70.84
2017-12-13T00:05:55.131Z,71.11
2017-12-13T00:08:22.733Z,70.93
2017-12-13T00:10:50.196Z,71.11
2017-12-13T00:13:17.681Z,71.27
2017-12-13T00:15:45.183Z,71.08
2017-12-13T00:18:12.636Z,71.34
2017-12-13T00:20:40.080Z,71.34
2017-12-13T00:23:07.548Z,71.74
2017-12-13T00:25:35.009Z,71.59
2017-12-13T00:28:02.521Z,71.48
2017-12-13T00:30:30.005Z,71.23
2017-12-13T00:32:57.447Z,71.40
2017-12-13T00:35:24.892Z,71.34
2017-12-13T00:37:52.348Z,71.65
2017-12-13T00:40:19.815Z,71.04
2017-12-13T00:42:47.272Z,71.31
2017-12-13T00:45:15.059Z,71.71
2017-12-13T00:47:42.471Z,71.54
2017-12-13T00:50:09.951Z,71.44
2017-12-13T00:52:37.435Z,71.10
2017-12-13T00:55:04.882Z,70.96
2017-12-13T00:57:32.343Z,70.64
2017-12-13T00:59:59.800Z,70.17
2017-12-13T01:02:27.258Z,70.58
2017-12-13T01:04:54.716Z,70.67
2017-12-13T01:07:22.200Z,70.47
2017-12-13T01:09:49.659Z,70.12
2017-12-13T01:12:17.095Z,69.86
2017-12-13T01:14:44.611Z,69.69
2017-12-13T01:17:12.077Z,69.44
2017-12-13T01:19:40.780Z,69.44
2017-12-13T01:22:08.230Z,69.45
2017-12-13T01:24:35.679Z,69.13
2017-12-13T01:27:03.117Z,69.20
2017-12-13T01:29:30.639Z,69.45
2017-12-13T01:31:58.130Z,69.81
2017-12-13T01:34:25.590Z,69.68
2017-12-13T01:36:53.047Z,69.46
2017-12-13T01:39:20.502Z,69.54
2017-12-13T01:41:47.966Z,69.25
2017-12-13T01:44:15.437Z,68.97
2017-12-13T01:46:42.905Z,69.08
2017-12-13T01:49:10.392Z,68.87
2017-12-13T01:51:37.854Z,68.99
2017-12-13T01:54:05.307Z,69.06
2017-12-13T01:56:32.819Z,69.51
2017-12-13T01:59:00.270Z,69.66
2017-12-13T02:01:27.726Z,69.68
2017-12-13T02:03:55.183Z,69.48
2017-12-13T02:06:22.678Z,69.69
2017-12-13T02:08:50.163Z,69.99
2017-12-13T02:11:17.619Z,70.09
2017-12-13T02:13:45.071Z,70.27
2017-12-13T02:16:12.573Z,70.58
2017-12-13T02:18:40.021Z,70.39
2017-12-13T02:21:07.484Z,70.38
2017-12-13T02:23:34.937Z,70.36
2017-12-13T02:26:02.383Z,70.39
2017-12-13T02:28:29.855Z,70.80
2017-12-13T02:30:57.304Z,70.97
2017-12-13T02:33:25.368Z,71.31
2017-12-13T02:35:52.830Z,71.15
2017-12-13T02:38:20.274Z,71.42
2017-12-13T02:40:59.264Z,70.90
2017-12-13T02:43:26.717Z,70.71
2017-12-13T02:45:54.170Z,70.75
2017-12-13T02:48:21.652Z,70.25
2017-12-13T02:50:49.097Z,70.52
2017-12-13T02:53:16.531Z,70.58
2017-12-13T02:55:46.833Z,70.51
2017-12-13T02:58:14.314Z,70.80
2017-12-13T03:00:41.767Z,70.77
2017-12-13T03:03:09.222Z,71.03
2017-12-13T03:05:36.666Z,71.10
2017-12-13T03:08:04.138Z,71.18
2017-12-13T03:10:31.610Z,71.35
2017-12-13T03:12:59.074Z,71.05
2017-12-13T03:15:26.517Z,71.15
2017-12-13T03:17:53.980Z,70.83
2017-12-13T03:20:21.427Z,71.25
2017-12-13T03:22:48.893Z,70.75
2017-12-13T03:25:16.411Z,71.00
2017-12-13T03:27:43.883Z,70.44
2017-12-13T03:30:11.337Z,70.96
2017-12-13T03:32:39.748Z,70.97
2017-12-13T03:35:07.241Z,70.56
2017-12-13T03:37:34.710Z,70.17
2017-12-13T03:40:02.163Z,70.42
2017-12-13T03:42:29.623Z,70.54
2017-12-13T03:44:57.088Z,70.34
2017-12-13T03:47:24.544Z,70.66
2017-12-13T03:49:52.005Z,70.71
2017-12-13T03:52:19.483Z,70.23
2017-12-13T03:54:47.203Z,70.52
2017-12-13T03:57:14.772Z,70.48
2017-12-13T03:59:42.255Z,69.92
2017-12-13T04:02:09.720Z,69.74
2017-12-13T04:04:37.241Z,69.48
2017-12-13T04:07:04.691Z,69.70
2017-12-13T04:09:32.143Z,69.82
2017-12-13T04:11:59.804Z,69.47
2017-12-13T04:14:27.371Z,69.44
2017-12-13T04:16:54.811Z,69.02
2017-12-13T04:19:22.257Z,68.91
2017-12-13T04:21:49.707Z,69.03
2017-12-13T04:24:17.148Z,68.96
2017-12-13T04:26:44.603Z,68.44
2017-12-13T04:29:12.093Z,68.94
2017-12-13T04:31:39.539Z,68.33
2017-12-13T04:34:07.019Z,68.29
2017-12-13T04:36:34.467Z,68.31
2017-12-13T04:39:01.925Z,67.76
2017-12-13T04:41:29.399Z,67.65
2017-12-13T04:43:56.922Z,67.87
2017-12-13T04:46:24.372Z,67.72
2017-12-13T04:48:51.830Z,67.49
2017-12-13T04:51:19.280Z,67.23
2017-12-13T04:53:46.719Z,67.47
2017-12-13T04:56:14.172Z,67.62
2017-12-13T04:58:41.620Z,67.64
2017-12-13T05:01:09.072Z,67.72
2017-12-13T05:03:36.510Z,67.43
2017-12-13T05:06:03.975Z,67.50
2017-12-13T05:08:31.431Z,67.81
2017-12-13T05:10:58.908Z,68.04
2017-12-13T05:13:26.375Z,67.67
2017-12-13T05:15:53.817Z,67.77
2017-12-13T05:18:21.299Z,67.88
2017-12-13T05:20:48.782Z,67.55
2017-12-13T05:23:16.235Z,67.66
2017-12-13T05:25:43.694Z,67.35
2017-12-13T05:28:11.136Z,66.97
2017-12-13T05:30:38.753Z,67.18
2017-12-13T05:33:06.213Z,66.90
2017-12-13T05:35:33.664Z,67.21
2017-12-13T05:38:01.183Z,67.49
2017-12-13T05:40:28.659Z,67.38
2017-12-13T05:42:56.130Z,66.85
2017-12-13T05:45:23.593Z,67.23
2017-12-13T05:47:51.052Z,67.32
2017-12-13T05:50:18.511Z,67.29
2017-12-13T05:52:46.013Z,67.45
2017-12-13T05:55:13.458Z,67.55
2017-12-13T05:57:40.978Z,66.97
2017-12-13T06:00:08.444Z,67.17
2017-12-13T06:02:35.904Z,67.69
2017-12-13T06:05:03.365Z,67.16
2017-12-13T06:07:30.831Z,67.34
2017-12-13T06:09:58.328Z,67.59
2017-12-13T06:12:26.039Z,67.17
2017-12-13T06:14:53.503Z,66.78
2017-12-13T06:17:20.959Z,66.71
2017-12-13T06:19:48.423Z,66.84
2017-12-13T06:22:15.948Z,67.02
2017-12-13T06:24:43.383Z,66.72
2017-12-13T06:27:10.902Z,66.98
2017-12-13T06:29:38.352Z,66.99
2017-12-13T06:32:05.820Z,67.70
2017-12-13T06:34:33.397Z,67.35
2017-12-13T06:37:01.513Z,67.23
2017-12-13T06:39:29.004Z,67.21
2017-12-13T06:41:56.456Z,67.13
2017-12-13T06:44:23.985Z,66.99
2017-12-13T06:46:51.423Z,67.10
2017-12-13T06:49:18.943Z,67.16
2017-12-13T06:51:46.395Z,67.59
2017-12-13T06:54:13.964Z,67.66
2017-12-13T06:56:41.451Z,67.39
2017-12-13T06:59:08.911Z,66.41
2017-12-13T07:01:37.044Z,66.86
2017-12-13T07:04:05.080Z,67.30
2017-12-13T07:06:36.850Z,67.43
2017-12-13T07:09:06.250Z,67.52
2017-12-13T07:11:35.058Z,67.20
2017-12-13T07:14:02.661Z,66.84
2017-12-13T07:16:31.688Z,66.96
2017-12-13T07:19:01.299Z,67.14
2017-12-13T07:21:29.721Z,66.84
2017-12-13T07:24:01.388Z,66.84
2017-12-13T07:26:28.868Z,66.93
2017-12-13T07:28:57.524Z,67.51
2017-12-13T07:34:01.340Z,68.04
2017-12-13T07:36:28.920Z,68.17
2017-12-13T07:38:59.047Z,68.51
2017-12-13T07:41:27.924Z,68.51
2017-12-13T07:43:58.988Z,68.23
2017-12-13T07:46:32.374Z,68.40
2017-12-13T07:49:00.442Z,67.81
2017-12-13T07:51:28.522Z,67.75
2017-12-13T07:53:58.563Z,67.75
2017-12-13T07:56:26.586Z,66.56
2017-12-13T07:58:54.041Z,65.95
2017-12-13T08:01:25.568Z,66.46
2017-12-13T08:03:53.079Z,66.64
2017-12-13T08:06:25.791Z,66.47
2017-12-13T08:08:54.393Z,66.76
2017-12-13T08:11:27.776Z,67.11
2017-12-13T08:13:58.504Z,67.60
2017-12-13T08:16:28.231Z,67.67
2017-12-13T08:19:02.889Z,67.61
2017-12-13T08:21:30.935Z,67.85
2017-12-13T08:24:02.819Z,67.68
2017-12-13T08:26:34.479Z,67.23
2017-12-13T08:29:01.951Z,66.73
2017-12-13T08:31:32.079Z,66.56
2017-12-13T08:34:02.260Z,66.60
2017-12-13T08:52:39.766Z,63.64
2017-12-13T08:55:08.694Z,63.98
2017-12-13T08:57:36.196Z,63.53
2017-12-13T09:00:04.944Z,63.76
2017-12-13T09:02:33.651Z,63.83
2017-12-13T09:05:01.123Z,63.87
2017-12-13T09:07:31.285Z,63.70
2017-12-13T09:09:58.984Z,63.56
2017-12-13T09:12:26.671Z,62.78
2017-12-13T09:14:54.150Z,62.57
2017-12-13T09:17:24.556Z,61.76
2017-12-13T09:19:52.485Z,58.88
2017-12-13T09:22:20.030Z,59.20
2017-12-13T09:24:47.521Z,58.59
2017-12-13T09:27:15.600Z,58.85
2017-12-13T09:29:43.084Z,60.13
2017-12-13T09:32:10.572Z,60.56
2017-12-13T09:34:38.056Z,59.45
2017-12-13T09:37:05.522Z,59.93
2017-12-13T09:39:33.072Z,59.61
2017-12-13T09:42:00.537Z,59.52
2017-12-13T09:44:28.012Z,58.99
2017-12-13T09:46:55.460Z,58.25
2017-12-13T09:49:22.919Z,58.20
2017-12-13T09:51:50.364Z,57.90
2017-12-13T09:54:17.908Z,56.93
2017-12-13T09:56:45.362Z,57.10
2017-12-13T09:59:12.859Z,57.03
2017-12-13T10:01:40.329Z,56.42
2017-12-13T10:04:08.295Z,56.08
2017-12-13T10:06:35.839Z,56.63
2017-12-13T10:09:03.380Z,56.82
2017-12-13T10:11:30.844Z,56.51
2017-12-13T10:13:58.361Z,56.23
2017-12-13T10:16:25.808Z,56.91
2017-12-13T10:18:53.308Z,56.59
2017-12-13T10:21:20.759Z,57.05
2017-12-13T10:23:48.229Z,57.75
2017-12-13T10:26:15.797Z,57.17
2017-12-13T10:28:43.247Z,57.25
2017-12-13T10:31:10.745Z,57.48
2017-12-13T10:33:38.753Z,57.50
2017-12-13T10:36:06.269Z,57.34
2017-12-13T10:38:33.728Z,57.77
2017-12-13T10:41:01.177Z,57.74
2017-12-13T10:43:31.044Z,57.75
2017-12-13T10:45:58.495Z,57.74
2017-12-13T10:48:26.232Z,56.99
2017-12-13T10:50:53.738Z,56.95
2017-12-13T10:53:21.366Z,55.47
2017-12-13T10:55:49.415Z,56.24
2017-12-13T10:58:16.904Z,56.16
2017-12-13T11:00:44.529Z,56.14
2017-12-13T11:03:11.999Z,56.62
2017-12-13T11:05:39.476Z,56.63
2017-12-13T11:08:06.971Z,56.80
2017-12-13T11:10:34.444Z,56.83
2017-12-13T11:13:01.937Z,56.58
2017-12-13T11:15:29.411Z,55.86
2017-12-13T11:17:56.897Z,56.76
2017-12-13T11:20:24.365Z,57.24
2017-12-13T11:22:51.836Z,56.67
2017-12-13T11:25:19.315Z,56.33
2017-12-13T11:27:46.810Z,56.43
2017-12-13T11:30:14.429Z,55.66
2017-12-13T11:32:41.915Z,55.36
2017-12-13T11:35:09.469Z,55.69
2017-12-13T11:37:37.055Z,54.63
2017-12-13T11:40:04.546Z,55.13
2017-12-13T11:42:32.014Z,55.18
2017-12-13T11:44:59.515Z,55.47
2017-12-13T11:47:26.967Z,54.72
2017-12-13T11:49:54.435Z,54.99
2017-12-13T11:52:21.900Z,54.96
2017-12-13T11:54:52.295Z,54.81
2017-12-13T11:57:19.760Z,54.72
2017-12-13T11:59:47.231Z,54.62
2017-12-13T12:02:19.463Z,53.55
2017-12-13T12:04:46.957Z,53.53
2017-12-13T12:07:14.423Z,53.11
2017-12-13T12:09:42.021Z,53.49
2017-12-13T12:12:11.634Z,53.35
2017-12-13T12:14:39.207Z,52.93
2017-12-13T12:17:06.676Z,52.90
2017-12-13T12:19:34.779Z,52.86
2017-12-13T12:22:02.248Z,52.88
2017-12-13T12:24:29.739Z,52.75
2017-12-13T12:26:57.208Z,52.55
2017-12-13T12:29:24.675Z,53.08
2017-12-13T12:31:52.151Z,53.42
2017-12-13T12:34:19.670Z,53.58
2017-12-13T12:36:47.525Z,53.73
2017-12-13T12:39:16.128Z,53.67
2017-12-13T12:41:43.689Z,53.58
2017-12-13T12:44:11.175Z,53.76
2017-12-13T12:46:38.652Z,53.40
2017-12-13T12:49:06.136Z,53.65
2017-12-13T12:51:43.743Z,53.91
2017-12-13T12:54:11.324Z,54.94
2017-12-13T12:56:38.810Z,55.32
2017-12-13T12:59:06.259Z,55.26
2017-12-13T13:01:34.352Z,55.50
2017-12-13T13:04:01.840Z,55.88
2017-12-13T13:06:29.325Z,56.00
2017-12-13T13:08:56.780Z,56.26
2017-12-13T13:11:24.225Z,56.66
2017-12-13T13:13:51.735Z,56.98
2017-12-13T13:16:19.181Z,56.66
2017-12-13T13:18:48.017Z,56.51
2017-12-13T13:21:16.168Z,56.71
2017-12-13T13:23:43.666Z,56.43
2017-12-13T13:26:11.132Z,56.71
2017-12-13T13:28:39.592Z,56.74
2017-12-13T13:31:07.060Z,56.80
2017-12-13T13:33:34.521Z,56.54
2017-12-13T13:36:01.986Z,55.85
2017-12-13T13:38:29.716Z,55.89
2017-12-13T13:40:57.208Z,55.80
2017-12-13T13:43:24.895Z,55.44
2017-12-13T13:45:52.688Z,55.57
2017-12-13T13:48:20.689Z,55.91
2017-12-13T13:50:48.148Z,55.86
2017-12-13T13:53:15.599Z,56.24
2017-12-13T13:55:43.098Z,56.44
2017-12-13T13:58:10.562Z,56.47
2017-12-13T14:00:38.173Z,55.54
2017-12-13T14:03:05.624Z,54.90
2017-12-13T14:05:33.131Z,54.06
2017-12-13T14:08:06.340Z,52.80
2017-12-13T14:10:33.818Z,52.46
2017-12-13T14:13:01.263Z,51.84
2017-12-13T14:15:28.813Z,51.23
2017-12-13T14:17:56.263Z,51.18
2017-12-13T14:20:23.721Z,51.69
2017-12-13T14:22:51.213Z,51.94
2017-12-13T14:25:18.680Z,52.84
2017-12-13T14:27:46.133Z,54.01
2017-12-13T14:30:13.656Z,55.20
2017-12-13T14:32:41.120Z,56.31
2017-12-13T14:35:08.597Z,57.13
2017-12-13T14:37:36.053Z,58.26
2017-12-13T14:40:03.515Z,59.36
2017-12-13T14:42:30.974Z,60.19
2017-12-13T14:44:58.504Z,61.19
2017-12-13T14:47:25.985Z,62.04
2017-12-13T14:49:53.490Z,62.78
2017-12-13T14:52:20.996Z,63.08
2017-12-13T14:54:48.468Z,63.61
2017-12-13T14:57:16.069Z,64.13
2017-12-13T14:59:43.515Z,64.36
2017-12-13T15:02:10.981Z,65.36
2017-12-13T15:04:38.456Z,65.49
2017-12-13T15:07:06.013Z,66.03
2017-12-13T15:09:33.476Z,66.98
2017-12-13T15:12:01.059Z,67.76
2017-12-13T15:14:28.546Z,68.23
2017-12-13T15:16:56.032Z,68.26
2017-12-13T15:19:24.800Z,69.30
2017-12-13T15:21:52.255Z,69.61
2017-12-13T15:24:19.732Z,70.00
2017-12-13T15:26:47.179Z,70.16
2017-12-13T15:29:15.244Z,70.62
2017-12-13T15:31:42.689Z,71.39
2017-12-13T15:34:10.665Z,71.91
2017-12-13T15:36:38.144Z,72.72
2017-12-13T15:39:05.671Z,73.33
2017-12-13T15:41:34.023Z,73.60
2017-12-13T15:44:01.557Z,73.53
2017-12-13T15:46:29.068Z,73.76
2017-12-13T15:48:56.524Z,74.31
2017-12-13T15:51:24.116Z,74.67
2017-12-13T15:53:51.600Z,75.39
2017-12-13T15:56:19.060Z,75.99
2017-12-13T15:58:46.519Z,76.38
2017-12-13T16:01:14.910Z,76.99
2017-12-13T16:03:42.353Z,77.25
2017-12-13T16:06:09.856Z,76.53
2017-12-13T16:08:37.433Z,76.37
2017-12-13T16:11:04.893Z,76.28
2017-12-13T16:13:33.727Z,76.02
2017-12-13T16:16:01.183Z,76.27
2017-12-13T16:18:28.836Z,76.20
2017-12-13T16:20:56.403Z,76.83
2017-12-13T16:23:23.890Z,77.06
2017-12-13T16:25:51.392Z,77.44
2017-12-13T16:28:18.936Z,77.63
2017-12-13T16:30:48.479Z,78.19
2017-12-13T16:33:16.598Z,78.43
2017-12-13T16:35:44.079Z,78.79
2017-12-13T16:38:11.541Z,78.78
2017-12-13T16:40:38.983Z,79.23
2017-12-13T16:43:06.484Z,79.32
2017-12-13T16:45:33.944Z,79.76
2017-12-13T16:48:01.427Z,80.25
2017-12-13T16:50:28.920Z,80.42
2017-12-13T16:52:56.445Z,81.18
2017-12-13T16:55:24.130Z,81.44
2017-12-13T16:57:51.712Z,81.74
2017-12-13T17:00:19.664Z,82.28
2017-12-13T17:02:47.124Z,82.37
2017-12-13T17:05:15.536Z,82.65
2017-12-13T17:07:43.901Z,82.73
2017-12-13T17:10:11.944Z,83.13
2017-12-13T17:12:39.443Z,83.53
2017-12-13T17:15:08.096Z,83.84
2017-12-13T17:17:35.582Z,83.83
2017-12-13T17:20:03.087Z,83.99
2017-12-13T17:22:30.552Z,84.12
2017-12-13T17:24:58.092Z,84.06
2017-12-13T17:27:25.802Z,84.64
2017-12-13T17:29:53.303Z,84.75
2017-12-13T17:32:20.834Z,84.65
2017-12-13T17:34:48.319Z,84.83
2017-12-13T17:37:15.793Z,85.11
2017-12-13T17:39:43.258Z,85.23
2017-12-13T17:42:10.795Z,84.85
2017-12-13T17:44:38.563Z,84.64
2017-12-13T17:47:06.030Z,84.44
2017-12-13T17:49:33.557Z,84.45
2017-12-13T17:52:01.277Z,84.46
2017-12-13T17:54:29.517Z,84.29
2017-12-13T17:56:57.036Z,83.99
2017-12-13T17:59:24.649Z,84.36
2017-12-13T18:01:52.175Z,84.20
2017-12-13T18:04:19.803Z,83.94
2017-12-13T18:06:47.618Z,83.12
2017-12-13T18:09:15.300Z,83.03
2017-12-13T18:11:42.826Z,83.01
2017-12-13T18:14:10.392Z,82.72
2017-12-13T18:16:38.049Z,82.35
2017-12-13T18:19:05.581Z,82.43
2017-12-13T18:21:33.142Z,82.65
2017-12-13T18:24:00.607Z,82.86
2017-12-13T18:26:28.233Z,82.66
2017-12-13T18:28:55.667Z,81.79
2017-12-13T18:31:23.202Z,80.26
2017-12-13T18:33:50.697Z,80.41
2017-12-13T18:36:18.155Z,80.65
2017-12-13T18:38:45.976Z,80.27
2017-12-13T18:41:13.697Z,79.57
2017-12-13T18:43:41.168Z,79.10
2017-12-13T18:46:08.719Z,78.75
2017-12-13T19:01:32.220Z,78.58
2017-12-13T19:03:59.718Z,78.21
2017-12-13T19:06:27.295Z,77.89
2017-12-13T19:08:54.765Z,77.63
2017-12-13T19:11:22.228Z,77.32
2017-12-13T19:13:49.724Z,77.37
2017-12-13T19:16:17.261Z,77.06
2017-12-13T19:18:45.750Z,76.67
2017-12-13T19:21:13.252Z,76.43
2017-12-13T19:23:40.700Z,75.97
2017-12-13T19:26:08.202Z,76.08
2017-12-13T19:28:35.795Z,74.89
2017-12-13T19:31:03.291Z,74.36
2017-12-13T19:33:31.025Z,73.58
2017-12-13T19:35:58.544Z,71.85
2017-12-13T19:38:26.165Z,71.55
2017-12-13T19:40:53.685Z,70.16
2017-12-13T19:43:21.210Z,70.09
2017-12-13T19:45:48.848Z,68.88
2017-12-13T19:48:16.361Z,68.29
2017-12-13T19:50:44.010Z,67.91
2017-12-13T19:53:11.571Z,67.53
2017-12-13T19:55:39.104Z,66.69
2017-12-13T19:58:06.663Z,65.89
2017-12-13T20:00:34.375Z,65.11
2017-12-13T20:03:02.876Z,65.00
2017-12-13T20:05:30.944Z,64.20
2017-12-13T20:07:58.518Z,63.14
2017-12-13T20:10:26.065Z,63.14
2017-12-13T20:12:53.659Z,62.96
2017-12-13T20:15:21.252Z,63.65
2017-12-13T20:17:50.934Z,64.61
2017-12-13T20:20:18.499Z,64.76
2017-12-13T20:22:46.018Z,64.81
2017-12-13T20:25:13.901Z,64.27
2017-12-13T20:27:41.481Z,64.44
2017-12-13T20:30:09.015Z,64.84
2017-12-13T20:32:36.533Z,65.25
2017-12-13T20:35:04.116Z,66.07
2017-12-13T20:37:31.660Z,66.16
2017-12-13T20:39:59.179Z,65.98
2017-12-13T20:42:26.671Z,65.96
2017-12-13T20:47:27.902Z,66.86
2017-12-13T20:49:55.488Z,66.71
2017-12-13T20:52:23.035Z,66.27
2017-12-13T20:54:50.559Z,66.63
2017-12-13T20:57:18.589Z,66.75
2017-12-13T20:59:46.175Z,66.59
2017-12-13T21:02:13.759Z,67.06
2017-12-13T21:04:41.284Z,66.80
2017-12-13T21:07:08.782Z,67.18
2017-12-13T21:09:36.294Z,67.58
2017-12-13T21:12:03.807Z,67.74
2017-12-13T21:14:35.178Z,67.65
2017-12-13T21:17:02.657Z,67.82
2017-12-13T21:19:30.112Z,68.15
2017-12-13T21:21:57.564Z,68.52
2017-12-13T21:24:26.369Z,69.22
2017-12-13T21:26:53.901Z,69.71
2017-12-13T21:29:21.493Z,70.44
2017-12-13T21:31:48.961Z,71.12
2017-12-13T21:34:16.572Z,71.72
2017-12-13T21:36:44.239Z,72.19
2017-12-13T21:39:11.710Z,72.84
2017-12-13T21:41:39.167Z,72.75
2017-12-13T21:44:06.664Z,72.93
2017-12-13T21:46:34.417Z,73.52
2017-12-13T21:49:01.919Z,74.27
2017-12-13T21:51:29.575Z,74.28
2017-12-13T21:53:57.081Z,74.68
2017-12-13T21:56:24.528Z,75.10
2017-12-13T21:58:52.009Z,75.14
2017-12-13T22:01:19.697Z,75.60
2017-12-13T22:03:47.156Z,75.86
2017-12-13T22:06:14.659Z,75.92
2017-12-13T22:08:42.184Z,76.24
2017-12-13T22:11:09.748Z,76.38
2017-12-13T22:13:37.234Z,76.78
2017-12-13T22:16:05.562Z,77.21
2017-12-13T22:18:33.205Z,77.57
2017-12-13T22:21:02.130Z,78.18
2017-12-13T22:23:30.318Z,78.27
2017-12-13T22:25:57.852Z,78.52
2017-12-13T22:28:25.351Z,78.59
2017-12-13T22:30:52.841Z,78.59
2017-12-13T22:33:20.434Z,78.12
2017-12-13T22:35:48.217Z,78.25
2017-12-13T22:38:17.116Z,78.69
2017-12-13T22:40:44.584Z,78.88
2017-12-13T22:43:12.168Z,79.00
2017-12-13T22:45:39.675Z,78.96
2017-12-13T22:48:07.783Z,79.01
2017-12-13T22:50:35.257Z,79.31
2017-12-13T22:53:02.726Z,79.29
2017-12-13T22:55:30.268Z,78.83
2017-12-13T22:57:57.816Z,78.78
2017-12-13T23:00:37.001Z,78.45
2017-12-13T23:03:04.479Z,78.51
2017-12-13T23:05:32.011Z,78.84
2017-12-13T23:07:59.520Z,78.78
2017-12-13T23:10:27.018Z,79.15
2017-12-13T23:12:54.508Z,79.54
2017-12-13T23:15:21.996Z,79.52
2017-12-13T23:17:49.534Z,79.79
2017-12-13T23:20:17.093Z,80.17
2017-12-13T23:22:44.571Z,80.40
2017-12-13T23:25:12.036Z,80.78
2017-12-13T23:27:39.524Z,81.32
2017-12-13T23:30:07.067Z,81.44
2017-12-13T23:32:34.607Z,81.84
2017-12-13T23:35:02.077Z,82.26
2017-12-13T23:37:29.588Z,83.13
2017-12-13T23:39:57.048Z,83.63
2017-12-13T23:42:24.569Z,84.25
2017-12-13T23:47:25.758Z,85.07
2017-12-13T23:49:53.297Z,85.61
2017-12-13T23:52:20.759Z,85.82
2017-12-13T23:54:48.244Z,86.06
2017-12-13T23:57:16.062Z,86.48
2017-12-13T23:59:43.538Z,86.98
